Time;durP1;ratioP1;P1;durP2;ratioP2;P2;SDS_P1;SDS_P2;PMS_P1;PMS_P2;Temp;Humidity;BMP_temperature;BMP_pressure;BME280_temperature;BME280_humidity;BME280_pressure;Samples;Min_cycle;Max_cycle;Signal;HPM_P1;HPM_P2
2023/12/17 00:00:09;;;;;;;2.80;1.33;;;17.00;84.10;;;;;;4787849;28;45524;-57
2023/12/17 00:02:35;;;;;;;2.33;1.45;;;17.00;84.20;;;;;;4786591;28;45313;-58
2023/12/17 00:05:30;;;;;;;2.80;1.27;;;17.00;84.30;;;;;;4816338;28;46619;-57
2023/12/17 00:08:30;;;;;;;1.48;1.20;;;17.00;84.10;;;;;;4773317;28;45465;-57
2023/12/17 00:11:16;;;;;;;2.53;1.30;;;17.00;84.20;;;;;;4827583;28;45356;-57
2023/12/17 00:14:11;;;;;;;3.17;1.25;;;17.00;84.10;;;;;;4792195;28;45368;-57
2023/12/17 00:19:18;;;;;;;2.50;1.17;;;17.00;84.10;;;;;;4779147;28;45283;-57
2023/12/17 00:21:47;;;;;;;1.95;0.98;;;17.00;84.10;;;;;;4809701;28;45292;-57
2023/12/17 00:24:15;;;;;;;1.73;1.15;;;17.00;84.20;;;;;;4771289;28;45591;-57
2023/12/17 00:27:20;;;;;;;3.95;1.45;;;17.00;84.20;;;;;;4810547;28;45928;-57
2023/12/17 00:30:11;;;;;;;3.00;1.20;;;17.00;84.40;;;;;;4788797;28;45525;-57
2023/12/17 00:35:18;;;;;;;2.63;1.42;;;17.10;84.40;;;;;;4763590;28;45565;-57
2023/12/17 00:38:00;;;;;;;2.17;1.10;;;17.10;84.30;;;;;;4798358;28;46180;-57
2023/12/17 00:40:36;;;;;;;3.90;1.60;;;17.00;84.50;;;;;;4795437;28;45333;-57
2023/12/17 00:43:35;;;;;;;2.78;1.27;;;17.10;84.50;;;;;;4824419;28;45262;-57
2023/12/17 00:46:04;;;;;;;2.63;1.45;;;17.00;84.40;;;;;;4757757;28;45520;-57
2023/12/17 00:48:43;;;;;;;3.05;1.65;;;17.00;84.50;;;;;;4761113;28;46557;-57
2023/12/17 00:51:12;;;;;;;3.58;1.30;;;17.00;84.40;;;;;;4818252;28;45325;-57
2023/12/17 00:54:00;;;;;;;2.78;1.40;;;17.00;84.30;;;;;;4812885;28;45334;-57
2023/12/17 01:00:06;;;;;;;4.18;1.50;;;17.10;84.40;;;;;;4780053;28;45308;-57
2023/12/17 01:02:59;;;;;;;1.35;1.23;;;17.10;84.50;;;;;;4796506;28;45515;-56
2023/12/17 01:05:25;;;;;;;3.17;1.60;;;17.00;84.30;;;;;;4790951;28;45388;-57
2023/12/17 01:08:12;;;;;;;2.35;1.30;;;17.10;84.40;;;;;;4807525;28;45076;-57
2023/12/17 01:11:01;;;;;;;2.75;1.40;;;17.10;84.50;;;;;;4794067;28;45966;-57
2023/12/17 01:13:27;;;;;;;3.15;1.45;;;17.10;84.40;;;;;;4781988;28;45570;-57
2023/12/17 01:15:55;;;;;;;2.45;1.20;;;17.10;84.40;;;;;;4808049;28;45317;-57
2023/12/17 01:18:36;;;;;;;2.45;1.27;;;17.10;84.30;;;;;;4772183;28;45461;-57
2023/12/17 01:21:07;;;;;;;5.03;1.60;;;17.00;84.30;;;;;;4791261;28;45943;-57
2023/12/17 01:23:51;;;;;;;2.72;1.50;;;17.10;85.40;;;;;;4809104;28;45324;-57
2023/12/17 01:26:26;;;;;;;4.15;1.50;;;17.10;84.50;;;;;;4807816;28;45301;-57
2023/12/17 01:28:54;;;;;;;3.03;1.58;;;17.10;84.60;;;;;;4799371;28;45432;-57
2023/12/17 01:31:32;;;;;;;2.85;1.75;;;17.10;84.70;;;;;;4771986;28;46478;-57
2023/12/17 01:34:31;;;;;;;3.13;1.55;;;17.10;84.40;;;;;;4782286;28;45673;-57
2023/12/17 01:40:09;;;;;;;3.90;1.30;;;17.10;84.50;;;;;;4778552;28;45338;-56
2023/12/17 01:42:36;;;;;;;4.32;1.52;;;17.10;84.60;;;;;;4783078;28;46486;-57
2023/12/17 01:45:31;;;;;;;3.08;1.42;;;17.10;84.50;;;;;;4849559;28;45477;-57
2023/12/17 01:48:47;;;;;;;2.40;1.40;;;17.10;84.40;;;;;;4808347;28;45219;-57
2023/12/17 01:51:14;;;;;;;2.38;1.40;;;17.10;84.50;;;;;;4777417;28;45398;-57
2023/12/17 01:53:42;;;;;;;2.80;1.42;;;17.10;84.50;;;;;;4786224;28;46319;-58
2023/12/17 01:56:27;;;;;;;3.05;1.50;;;17.00;84.20;;;;;;4779812;28;45352;-57
2023/12/17 01:59:09;;;;;;;1.95;1.23;;;17.10;84.50;;;;;;4780454;28;45658;-57
2023/12/17 02:01:49;;;;;;;3.38;1.70;;;17.00;84.30;;;;;;4796350;28;45613;-57
2023/12/17 02:04:42;;;;;;;3.58;1.58;;;17.00;85.10;;;;;;4770755;28;47228;-57
2023/12/17 02:07:37;;;;;;;4.10;1.60;;;17.10;84.10;;;;;;4771554;28;45447;-57
2023/12/17 02:10:04;;;;;;;2.65;1.48;;;17.00;83.70;;;;;;4810712;28;45292;-57
2023/12/17 02:12:49;;;;;;;1.52;1.33;;;17.00;83.60;;;;;;4779110;28;45343;-56
2023/12/17 02:15:18;;;;;;;3.45;1.48;;;17.00;83.50;;;;;;4792277;28;46623;-57
2023/12/17 02:17:45;;;;;;;2.60;1.38;;;17.00;83.50;;;;;;4800969;28;45394;-57
2023/12/17 02:20:37;;;;;;;3.03;1.60;;;17.00;83.20;;;;;;4795726;28;45623;-57
2023/12/17 02:23:32;;;;;;;2.60;1.40;;;17.00;83.20;;;;;;4812119;28;45554;-56
2023/12/17 02:26:11;;;;;;;3.85;1.70;;;17.00;83.30;;;;;;4807176;28;46412;-56
2023/12/17 02:28:59;;;;;;;2.60;1.40;;;17.10;83.50;;;;;;4787840;28;45450;-57
2023/12/17 02:31:41;;;;;;;1.90;1.40;;;17.00;83.40;;;;;;4785705;28;45288;-56
2023/12/17 02:34:08;;;;;;;3.13;1.40;;;17.10;83.50;;;;;;4767632;28;45402;-56
2023/12/17 02:36:35;;;;;;;2.20;1.13;;;17.10;83.50;;;;;;4784140;28;46536;-57
2023/12/17 02:39:23;;;;;;;3.22;1.60;;;17.10;83.60;;;;;;4812216;28;45439;-56
2023/12/17 02:42:38;;;;;;;4.45;1.83;;;17.00;83.50;;;;;;4794211;28;45394;-56
2023/12/17 02:45:40;;;;;;;4.43;1.67;;;17.00;83.40;;;;;;4873879;28;45466;-56
2023/12/17 02:52:00;;;;;;;2.55;1.35;;;17.10;83.20;;;;;;4779823;28;45406;-57
2023/12/17 02:54:56;;;;;;;3.00;1.50;;;17.10;83.10;;;;;;4793277;28;45495;-56
2023/12/17 03:00:11;;;;;;;2.17;1.33;;;17.00;82.80;;;;;;4790087;28;46232;-57
2023/12/17 03:03:03;;;;;;;3.05;1.67;;;17.00;82.80;;;;;;4780052;28;45582;-57
2023/12/17 03:05:33;;;;;;;3.80;1.90;;;17.00;82.80;;;;;;4772446;28;45537;-57
2023/12/17 03:08:38;;;;;;;2.20;1.50;;;17.00;82.60;;;;;;4804543;28;45639;-57
2023/12/17 03:11:10;;;;;;;2.63;1.50;;;17.00;82.40;;;;;;4808744;28;45840;-57
2023/12/17 03:13:45;;;;;;;3.70;1.75;;;17.00;82.30;;;;;;4795195;28;45794;-57
2023/12/17 03:20:00;;;;;;;2.50;1.50;;;17.00;82.40;;;;;;4750496;28;45493;-57
2023/12/17 03:22:49;;;;;;;3.53;1.65;;;17.00;82.40;;;;;;4780691;28;45573;-57
2023/12/17 03:25:27;;;;;;;2.22;1.55;;;17.00;82.30;;;;;;4791477;28;45236;-57
2023/12/17 03:28:27;;;;;;;2.75;1.75;;;17.00;82.20;;;;;;4817087;28;45668;-57
2023/12/17 03:31:40;;;;;;;2.60;1.52;;;17.00;82.00;;;;;;4829470;28;45418;-57
2023/12/17 03:34:35;;;;;;;2.65;1.70;;;17.00;82.00;;;;;;4794572;28;46329;-57
2023/12/17 03:37:03;;;;;;;2.35;1.33;;;17.00;81.80;;;;;;4796550;28;45326;-57
2023/12/17 03:39:37;;;;;;;3.15;1.60;;;17.10;81.90;;;;;;4815530;28;45406;-58
2023/12/17 03:42:28;;;;;;;2.15;1.65;;;17.10;81.90;;;;;;4786905;28;45377;-57
2023/12/17 03:44:55;;;;;;;2.72;1.40;;;17.00;81.70;;;;;;4819844;28;46706;-58
2023/12/17 03:50:54;;;;;;;2.72;1.58;;;17.00;81.40;;;;;;4802809;28;45535;-57
2023/12/17 03:53:21;;;;;;;2.25;1.58;;;17.00;81.50;;;;;;4791497;28;45749;-57
2023/12/17 03:55:48;;;;;;;2.50;1.52;;;17.00;81.50;;;;;;4795094;28;45620;-57
2023/12/17 03:58:16;;;;;;;2.00;1.45;;;17.00;81.20;;;;;;4804217;28;45335;-58
2023/12/17 04:00:43;;;;;;;2.28;1.27;;;17.00;81.40;;;;;;4812567;28;45273;-58
2023/12/17 04:03:12;;;;;;;2.03;1.58;;;17.00;81.40;;;;;;4800738;28;45555;-57
2023/12/17 04:05:53;;;;;;;2.08;1.70;;;17.00;81.30;;;;;;4797893;28;46464;-57
2023/12/17 04:08:41;;;;;;;2.40;1.80;;;17.00;81.40;;;;;;4795997;28;45501;-57
2023/12/17 04:11:30;;;;;;;2.38;1.70;;;17.00;81.10;;;;;;4825992;28;45546;-57
2023/12/17 04:13:57;;;;;;;1.83;1.55;;;17.00;81.10;;;;;;4795042;28;45570;-57
2023/12/17 04:16:53;;;;;;;4.78;1.45;;;17.00;80.90;;;;;;4828765;28;47187;-57
2023/12/17 04:22:55;;;;;;;1.83;1.48;;;17.00;80.80;;;;;;4826287;28;45367;-57
2023/12/17 04:25:42;;;;;;;1.95;1.50;;;17.00;80.80;;;;;;4799815;28;45534;-57
2023/12/17 04:28:37;;;;;;;2.25;1.52;;;17.00;80.70;;;;;;4803552;28;46224;-57
2023/12/17 04:31:06;;;;;;;2.83;1.73;;;17.00;80.50;;;;;;4813518;28;45497;-57
2023/12/17 04:33:32;;;;;;;4.47;1.95;;;17.00;80.50;;;;;;4796843;28;45201;-58
2023/12/17 04:36:01;;;;;;;2.92;1.80;;;17.00;80.40;;;;;;4806689;28;45497;-57
2023/12/17 04:38:55;;;;;;;1.95;1.38;;;17.00;80.40;;;;;;4785022;28;47259;-57
2023/12/17 04:41:43;;;;;;;2.00;1.25;;;17.00;80.20;;;;;;4793331;28;45260;-57
2023/12/17 04:44:12;;;;;;;2.85;1.50;;;17.00;80.20;;;;;;4805007;28;45408;-58
2023/12/17 04:46:49;;;;;;;2.63;1.48;;;17.00;80.10;;;;;;4794422;28;45343;-57
2023/12/17 04:49:22;;;;;;;2.15;1.52;;;17.00;80.00;;;;;;4777223;28;45821;-57
2023/12/17 04:52:34;;;;;;;3.15;1.73;;;17.00;79.90;;;;;;4788949;28;45634;-57
2023/12/17 04:55:12;;;;;;;2.47;1.60;;;17.00;79.90;;;;;;4791917;28;45649;-57
2023/12/17 04:57:39;;;;;;;2.63;1.65;;;17.00;80.00;;;;;;4821713;28;45504;-58
2023/12/17 05:00:28;;;;;;;2.38;1.55;;;17.00;79.90;;;;;;4797165;28;46830;-57
2023/12/17 05:03:21;;;;;;;2.40;1.40;;;17.00;80.00;;;;;;4788837;28;45837;-57
2023/12/17 05:06:03;;;;;;;2.40;1.27;;;17.00;79.80;;;;;;4781410;28;45559;-57
2023/12/17 05:08:31;;;;;;;2.13;1.40;;;17.00;79.70;;;;;;4795578;28;45525;-57
2023/12/17 05:10:58;;;;;;;2.22;1.35;;;17.00;79.70;;;;;;4796096;28;46300;-57
2023/12/17 05:13:47;;;;;;;2.20;1.40;;;17.00;79.60;;;;;;4787093;28;45364;-57
2023/12/17 05:16:36;;;;;;;2.58;1.42;;;17.00;79.50;;;;;;4793463;28;45891;-57
2023/12/17 05:19:03;;;;;;;3.05;1.50;;;17.00;79.60;;;;;;4775666;28;45410;-57
2023/12/17 05:21:56;;;;;;;2.13;1.60;;;17.00;79.40;;;;;;4809130;28;46295;-57
2023/12/17 05:27:27;;;;;;;2.33;1.55;;;17.00;80.30;;;;;;4795014;28;45332;-57
2023/12/17 05:30:15;;;;;;;2.05;1.40;;;17.00;79.60;;;;;;4777170;28;45283;-57
2023/12/17 05:33:09;;;;;;;2.25;1.38;;;17.00;79.20;;;;;;4858977;28;47790;-57
2023/12/17 05:35:48;;;;;;;2.35;1.55;;;17.00;79.00;;;;;;4785845;28;45623;-57
2023/12/17 05:38:32;;;;;;;2.58;1.50;;;17.00;78.90;;;;;;4782798;28;45314;-57
2023/12/17 05:41:24;;;;;;;2.67;1.58;;;17.00;79.10;;;;;;4820972;28;45310;-57
2023/12/17 05:44:23;;;;;;;1.73;1.35;;;17.00;78.90;;;;;;4830238;28;45533;-57
2023/12/17 05:47:27;;;;;;;2.13;1.38;;;17.00;79.10;;;;;;4793538;28;45774;-57
2023/12/17 05:50:10;;;;;;;2.95;1.40;;;17.00;78.80;;;;;;4823554;28;45807;-57
2023/12/17 05:52:37;;;;;;;2.67;1.40;;;17.00;78.80;;;;;;4792870;28;45515;-58
2023/12/17 05:55:04;;;;;;;2.55;1.60;;;17.00;78.70;;;;;;4797382;28;47943;-57
2023/12/17 05:57:59;;;;;;;2.78;1.67;;;17.00;78.70;;;;;;4826051;28;45234;-57
2023/12/17 06:00:26;;;;;;;1.98;1.30;;;17.00;78.60;;;;;;4789950;28;45715;-57
2023/12/17 06:03:18;;;;;;;3.78;1.60;;;17.00;78.50;;;;;;4767013;28;45329;-57
2023/12/17 06:05:44;;;;;;;2.00;1.42;;;17.00;78.50;;;;;;4797702;28;46347;-57
2023/12/17 06:08:41;;;;;;;1.55;1.17;;;17.00;78.40;;;;;;4800633;28;45383;-57
2023/12/17 06:11:08;;;;;;;2.65;1.40;;;17.00;78.40;;;;;;4801762;28;45457;-57
2023/12/17 06:14:00;;;;;;;1.92;1.38;;;17.00;78.40;;;;;;4798735;28;45329;-58
2023/12/17 06:16:29;;;;;;;1.98;1.23;;;17.00;78.20;;;;;;4788075;28;45256;-57
2023/12/17 06:19:47;;;;;;;3.40;1.70;;;17.00;78.20;;;;;;4789818;28;45246;-57
2023/12/17 06:22:41;;;;;;;3.05;1.30;;;17.00;78.00;;;;;;4793872;28;45369;-57
2023/12/17 06:25:37;;;;;;;2.05;1.52;;;17.00;78.00;;;;;;4793733;28;45413;-57
2023/12/17 06:28:16;;;;;;;2.08;1.25;;;17.00;78.00;;;;;;4788914;28;46701;-57
2023/12/17 06:33:25;;;;;;;1.65;1.45;;;17.00;77.80;;;;;;4789325;28;45333;-57
2023/12/17 06:36:18;;;;;;;1.88;1.30;;;17.00;78.00;;;;;;4821067;28;45322;-57
2023/12/17 06:39:15;;;;;;;2.00;1.25;;;17.00;78.00;;;;;;4782735;28;46451;-57
2023/12/17 06:41:55;;;;;;;2.63;1.40;;;17.00;77.90;;;;;;4795487;28;45379;-57
2023/12/17 06:44:22;;;;;;;63.97;4.32;;;17.00;77.90;;;;;;4798212;28;45303;-59
2023/12/17 06:46:50;;;;;;;2.22;1.50;;;17.00;79.10;;;;;;4815859;28;45297;-61
2023/12/17 06:49:38;;;;;;;5.82;1.60;;;17.00;78.20;;;;;;4803687;28;45855;-60
2023/12/17 06:52:31;;;;;;;5.68;1.23;;;17.00;78.10;;;;;;4793994;28;45576;-59
2023/12/17 06:55:26;;;;;;;2.33;1.38;;;17.00;78.00;;;;;;4878740;28;45809;-60
2023/12/17 06:57:53;;;;;;;4.40;1.48;;;17.00;77.90;;;;;;4866262;28;45274;-60
2023/12/17 07:00:55;;;;;;;2.17;1.40;;;17.00;79.00;;;;;;4829063;28;45662;-60
2023/12/17 07:07:12;;;;;;;2.63;1.20;;;16.90;77.80;;;;;;4778276;28;46927;-60
2023/12/17 07:09:41;;;;;;;4.75;1.65;;;16.90;77.70;;;;;;4805248;28;45589;-60
2023/12/17 07:12:09;;;;;;;2.30;1.40;;;16.90;77.90;;;;;;4794944;28;47366;-60
2023/12/17 07:14:35;;;;;;;1.83;1.05;;;16.90;77.70;;;;;;4797746;28;45472;-61
2023/12/17 07:17:02;;;;;;;1.55;1.20;;;16.90;77.60;;;;;;4812054;28;45347;-61
2023/12/17 07:19:39;;;;;;;4.10;1.20;;;16.90;77.40;;;;;;4800000;28;45937;-60
2023/12/17 07:22:36;;;;;;;1.83;1.42;;;16.90;77.20;;;;;;4792827;28;46537;-60
2023/12/17 07:25:32;;;;;;;3.25;1.63;;;16.90;77.30;;;;;;4811845;28;45537;-60
2023/12/17 07:28:02;;;;;;;1.50;1.13;;;16.90;78.20;;;;;;4781180;28;46051;-61
2023/12/17 07:30:38;;;;;;;2.78;1.33;;;16.90;77.00;;;;;;4783682;28;45690;-59
2023/12/17 07:33:17;;;;;;;2.20;1.20;;;17.00;77.70;;;;;;4800020;28;46204;-60
2023/12/17 07:36:15;;;;;;;5.72;0.95;;;17.00;76.30;;;;;;4782248;28;45322;-60
2023/12/17 07:38:44;;;;;;;1.95;1.33;;;16.90;76.20;;;;;;4802910;28;45303;-61
2023/12/17 07:41:26;;;;;;;2.13;1.13;;;16.90;76.40;;;;;;4820633;28;45360;-60
2023/12/17 07:46:33;;;;;;;1.52;1.20;;;16.90;76.60;;;;;;4774821;28;45827;-61
2023/12/17 07:49:13;;;;;;;1.85;1.17;;;16.90;76.10;;;;;;4778251;28;45697;-60
2023/12/17 07:52:11;;;;;;;2.15;1.15;;;16.90;76.30;;;;;;4798253;28;45504;-60
2023/12/17 07:54:39;;;;;;;1.70;1.23;;;16.90;76.50;;;;;;4798714;28;47208;-61
2023/12/17 07:57:20;;;;;;;1.63;1.13;;;16.90;76.40;;;;;;4788044;28;45601;-60
2023/12/17 08:00:19;;;;;;;3.08;1.65;;;16.90;76.40;;;;;;4833027;28;45579;-60
2023/12/17 08:05:40;;;;;;;1.63;1.10;;;16.90;76.40;;;;;;4808169;28;45619;-60
2023/12/17 08:08:22;;;;;;;2.20;1.40;;;16.90;76.20;;;;;;4827268;28;45322;-60
2023/12/17 08:11:16;;;;;;;2.40;1.58;;;16.90;76.10;;;;;;4798665;28;45425;-60
2023/12/17 08:14:12;;;;;;;4.82;1.48;;;16.90;76.30;;;;;;4808461;28;45540;-61
2023/12/17 08:17:04;;;;;;;2.53;1.73;;;16.90;75.60;;;;;;4790854;28;47343;-58
2023/12/17 08:19:50;;;;;;;3.38;1.88;;;16.90;77.40;;;;;;4813763;28;45425;-59
2023/12/17 08:22:20;;;;;;;6.05;1.58;;;17.00;78.20;;;;;;4792992;28;45402;-60
2023/12/17 08:24:47;;;;;;;3.72;1.65;;;17.00;78.90;;;;;;4799635;28;45325;-60
2023/12/17 08:27:16;;;;;;;3.55;1.90;;;17.00;78.10;;;;;;4799648;28;45926;-61
2023/12/17 08:30:04;;;;;;;4.53;1.75;;;17.00;78.20;;;;;;4808087;28;45368;-59
2023/12/17 08:32:46;;;;;;;2.80;2.00;;;17.00;78.30;;;;;;4797411;28;45267;-58
2023/12/17 08:35:40;;;;;;;2.60;1.92;;;16.90;78.00;;;;;;4808900;28;45347;-59
2023/12/17 08:38:29;;;;;;;3.85;1.88;;;16.90;81.40;;;;;;4804672;28;45262;-58
2023/12/17 08:41:09;;;;;;;4.50;2.50;;;16.80;79.40;;;;;;4803030;28;45528;-58
2023/12/17 08:44:22;;;;;;;3.40;2.38;;;16.70;80.10;;;;;;4803339;28;45311;-58
2023/12/17 08:46:50;;;;;;;3.42;2.72;;;16.70;81.20;;;;;;4810639;28;45513;-59
2023/12/17 08:49:40;;;;;;;3.80;2.55;;;16.70;81.60;;;;;;4810457;28;46530;-58
2023/12/17 08:52:20;;;;;;;3.25;2.40;;;16.70;81.50;;;;;;4787627;28;45171;-58
2023/12/17 08:55:00;;;;;;;5.60;2.60;;;16.60;81.70;;;;;;4786198;28;45601;-58
2023/12/17 08:58:01;;;;;;;4.65;2.70;;;16.60;81.40;;;;;;4790749;28;45570;-58
2023/12/17 09:00:57;;;;;;;7.22;2.95;;;16.60;81.40;;;;;;4778922;28;46257;-58
2023/12/17 09:03:46;;;;;;;43.30;4.57;;;16.60;79.80;;;;;;4788928;28;45641;-57
2023/12/17 09:06:14;;;;;;;8.75;3.47;;;16.60;79.10;;;;;;4809208;28;45425;-58
2023/12/17 09:09:03;;;;;;;11.85;3.35;;;16.60;78.70;;;;;;4803765;28;45445;-60
2023/12/17 09:11:41;;;;;;;32.63;4.60;;;16.60;78.40;;;;;;4808178;28;46580;-61
2023/12/17 09:14:24;;;;;;;13.82;4.20;;;16.60;81.30;;;;;;4785933;28;45528;-61
2023/12/17 09:16:52;;;;;;;12.07;3.42;;;16.50;78.00;;;;;;4802035;28;45539;-61
2023/12/17 09:19:34;;;;;;;6.70;3.10;;;16.50;77.70;;;;;;4785371;28;45631;-61
2023/12/17 09:22:24;;;;;;;9.80;3.53;;;16.50;78.70;;;;;;4832940;28;46405;-61
2023/12/17 09:25:13;;;;;;;9.93;2.95;;;16.50;80.50;;;;;;4814113;28;45309;-61
2023/12/17 09:27:40;;;;;;;8.52;3.38;;;16.40;77.60;;;;;;4829713;28;45676;-61
2023/12/17 09:30:11;;;;;;;5.43;3.25;;;16.50;79.20;;;;;;4789964;28;45521;-60
2023/12/17 09:33:01;;;;;;;6.80;3.13;;;16.40;78.50;;;;;;4787359;28;45914;-61
2023/12/17 09:35:41;;;;;;;5.22;2.45;;;16.50;82.10;;;;;;4811303;28;45424;-61
2023/12/17 09:38:14;;;;;;;3.85;2.42;;;16.50;81.20;;;;;;4803951;28;45462;-61
2023/12/17 09:41:10;;;;;;;5.13;2.70;;;16.50;81.40;;;;;;4824283;28;45498;-62
2023/12/17 09:44:11;;;;;;;5.82;2.85;;;16.50;82.40;;;;;;4794172;28;46523;-62
2023/12/17 09:46:46;;;;;;;5.13;2.83;;;16.60;85.60;;;;;;4793277;28;45331;-62
2023/12/17 09:49:18;;;;;;;5.82;3.00;;;16.50;84.50;;;;;;4787412;28;45421;-62
2023/12/17 09:52:08;;;;;;;3.97;2.47;;;16.60;83.80;;;;;;4822430;28;45462;-62
2023/12/17 09:54:49;;;;;;;4.03;2.50;;;16.60;84.30;;;;;;4807689;28;45475;-62
2023/12/17 09:57:17;;;;;;;6.80;2.28;;;16.60;84.30;;;;;;4802771;28;45573;-61
2023/12/17 09:59:45;;;;;;;5.00;2.40;;;16.60;83.40;;;;;;4815864;28;45370;-61
2023/12/17 10:02:29;;;;;;;3.22;2.30;;;16.60;84.50;;;;;;4810541;28;45421;-62
2023/12/17 10:04:59;;;;;;;5.13;2.80;;;16.60;84.20;;;;;;4807266;28;45931;-62
2023/12/17 10:07:48;;;;;;;4.72;2.47;;;16.60;86.80;;;;;;4814917;28;45473;-62
2023/12/17 10:10:15;;;;;;;3.42;2.63;;;16.60;88.00;;;;;;4807767;28;45384;-61
2023/12/17 10:13:18;;;;;;;2.70;2.00;;;16.60;87.00;;;;;;4803102;28;45675;-62
2023/12/17 10:16:13;;;;;;;4.03;2.30;;;16.60;84.90;;;;;;4793473;28;46461;-62
2023/12/17 10:25:31;;;;;;;3.58;2.78;;;16.60;85.80;;;;;;4774507;28;45327;-62
2023/12/17 10:28:14;;;;;;;3.15;1.95;;;16.60;88.10;;;;;;4803708;28;45401;-62
2023/12/17 10:30:42;;;;;;;2.88;2.05;;;16.60;85.70;;;;;;4785309;28;45360;-62
2023/12/17 10:33:14;;;;;;;3.45;2.45;;;16.60;87.80;;;;;;4802166;28;45459;-62
2023/12/17 10:39:16;;;;;;;4.22;2.60;;;16.60;86.80;;;;;;4764456;28;45539;-62
2023/12/17 10:42:07;;;;;;;4.63;2.70;;;16.60;88.20;;;;;;4826952;28;45352;-62
2023/12/17 10:44:48;;;;;;;3.15;2.60;;;16.60;87.60;;;;;;4830259;28;45269;-62
2023/12/17 10:47:31;;;;;;;4.80;3.30;;;16.60;90.30;;;;;;4806934;28;46227;-62
2023/12/17 10:50:34;;;;;;;5.03;3.00;;;16.60;90.30;;;;;;4843325;28;47632;-62
2023/12/17 10:53:16;;;;;;;3.38;2.75;;;16.60;90.60;;;;;;4798613;28;45282;-62
2023/12/17 10:55:45;;;;;;;4.30;3.10;;;16.60;88.60;;;;;;4802308;28;45512;-61
2023/12/17 11:01:58;;;;;;;3.83;3.03;;;16.70;90.70;;;;;;4788064;28;45481;-62
2023/12/17 11:04:46;;;;;;;5.82;3.63;;;16.60;90.30;;;;;;4790231;28;45856;-62
2023/12/17 11:07:30;;;;;;;4.55;3.45;;;16.60;89.90;;;;;;4817523;28;45282;-62
2023/12/17 11:09:58;;;;;;;3.42;2.83;;;16.70;89.20;;;;;;4787300;28;45452;-62
2023/12/17 11:12:46;;;;;;;5.53;3.28;;;16.60;88.70;;;;;;4789211;28;47628;-62
2023/12/17 11:15:41;;;;;;;4.18;3.10;;;16.70;90.80;;;;;;4794471;28;45263;-62
2023/12/17 11:18:10;;;;;;;4.53;3.22;;;16.60;90.00;;;;;;4800223;28;45441;-62
2023/12/17 11:20:41;;;;;;;4.75;3.05;;;16.70;87.80;;;;;;4813818;28;45119;-62
2023/12/17 11:23:24;;;;;;;3.20;2.90;;;16.60;90.70;;;;;;4805863;28;45451;-62
2023/12/17 11:26:28;;;;;;;4.18;2.97;;;16.60;88.60;;;;;;4799068;28;45388;-62
2023/12/17 11:29:53;;;;;;;4.22;3.28;;;16.70;90.90;;;;;;4789711;28;45344;-62
2023/12/17 11:32:40;;;;;;;3.80;2.95;;;16.70;91.30;;;;;;4779350;28;45419;-62
2023/12/17 11:35:35;;;;;;;3.63;2.67;;;16.70;90.00;;;;;;4792733;28;47825;-62
2023/12/17 11:38:16;;;;;;;4.57;3.25;;;16.70;90.40;;;;;;4815211;28;45359;-62
2023/12/17 11:40:43;;;;;;;4.20;2.92;;;16.70;91.10;;;;;;4829952;28;45423;-62
2023/12/17 11:43:31;;;;;;;3.83;2.95;;;16.70;90.20;;;;;;4799171;28;45344;-62
2023/12/17 11:46:30;;;;;;;4.85;3.08;;;16.70;90.90;;;;;;4797246;28;46359;-62
2023/12/17 11:49:22;;;;;;;3.58;2.70;;;16.70;91.40;;;;;;4835349;28;45440;-62
2023/12/17 11:54:58;;;;;;;4.10;2.30;;;16.70;91.10;;;;;;4848219;28;45437;-62
2023/12/17 11:57:37;;;;;;;3.63;2.63;;;16.70;90.50;;;;;;4801134;28;46273;-62
2023/12/17 12:00:26;;;;;;;3.72;2.65;;;16.70;89.80;;;;;;4802477;28;45654;-62
2023/12/17 12:03:06;;;;;;;3.13;2.35;;;16.70;90.10;;;;;;4820754;28;45529;-62
2023/12/17 12:05:33;;;;;;;3.80;2.10;;;16.70;89.90;;;;;;4791385;28;45437;-62
2023/12/17 12:08:33;;;;;;;3.17;2.33;;;16.70;90.90;;;;;;4818454;28;46365;-62
2023/12/17 12:11:02;;;;;;;6.03;2.60;;;16.70;91.70;;;;;;4776299;28;45370;-62
2023/12/17 12:16:20;;;;;;;3.78;2.28;;;16.70;90.80;;;;;;4792721;28;45318;-62
2023/12/17 12:19:29;;;;;;;3.17;1.95;;;16.70;90.10;;;;;;4778029;28;47257;-62
2023/12/17 12:21:56;;;;;;;3.67;2.15;;;16.70;90.10;;;;;;4761776;28;45451;-62
2023/12/17 12:24:30;;;;;;;3.65;2.20;;;16.70;90.70;;;;;;4800094;28;45415;-62
2023/12/17 12:27:06;;;;;;;3.35;2.15;;;16.70;91.60;;;;;;4807455;28;45350;-62
2023/12/17 12:30:17;;;;;;;3.20;2.22;;;16.70;91.60;;;;;;4780375;28;45238;-62
2023/12/17 12:32:43;;;;;;;3.33;2.30;;;16.70;90.30;;;;;;4794207;28;45199;-62
2023/12/17 12:35:37;;;;;;;2.58;1.70;;;16.70;90.20;;;;;;4783501;28;45502;-62
2023/12/17 12:41:27;;;;;;;3.88;2.08;;;16.70;90.20;;;;;;4755972;28;45715;-62
2023/12/17 12:44:32;;;;;;;3.50;2.00;;;16.70;90.70;;;;;;4787241;28;45460;-62
2023/12/17 12:47:10;;;;;;;3.50;2.08;;;16.70;90.30;;;;;;4792926;28;45196;-62
2023/12/17 12:53:53;;;;;;;3.92;2.10;;;16.70;91.00;;;;;;4752002;28;45557;-62
2023/12/17 12:59:58;;;;;;;3.47;2.13;;;16.80;91.70;;;;;;4760477;28;45460;-63
2023/12/17 13:02:39;;;;;;;3.95;1.88;;;16.70;91.40;;;;;;4785296;28;45461;-62
2023/12/17 13:05:07;;;;;;;5.32;2.13;;;16.70;90.80;;;;;;4793436;28;47349;-62
2023/12/17 13:10:37;;;;;;;4.22;1.80;;;16.80;91.70;;;;;;4782578;28;45386;-62
2023/12/17 13:13:30;;;;;;;4.57;1.95;;;16.80;91.10;;;;;;4809086;28;45298;-62
2023/12/17 13:15:57;;;;;;;5.13;2.13;;;16.80;90.90;;;;;;4806342;28;46983;-63
2023/12/17 13:18:25;;;;;;;3.80;1.60;;;16.80;92.30;;;;;;4810933;28;45342;-62
2023/12/17 13:23:33;;;;;;;3.28;1.88;;;16.80;91.30;;;;;;4793832;28;45578;-62
2023/12/17 13:26:29;;;;;;;4.07;1.88;;;16.70;90.90;;;;;;4813554;28;47585;-62
2023/12/17 13:29:32;;;;;;;3.33;1.85;;;16.80;92.10;;;;;;4807305;28;45385;-63
2023/12/17 13:32:32;;;;;;;3.85;2.15;;;16.80;91.40;;;;;;4802860;28;45380;-63
2023/12/17 13:35:10;;;;;;;6.32;1.80;;;16.80;90.80;;;;;;4797788;28;45472;-63
2023/12/17 13:37:38;;;;;;;4.07;1.63;;;16.80;92.00;;;;;;4792133;28;45473;-62
2023/12/17 13:40:29;;;;;;;3.85;1.80;;;16.80;91.20;;;;;;4798543;28;45292;-63
2023/12/17 13:43:07;;;;;;;4.57;2.17;;;16.80;91.60;;;;;;4806866;28;45354;-63
2023/12/17 13:46:01;;;;;;;2.80;1.50;;;16.80;91.10;;;;;;4813150;28;45294;-63
2023/12/17 13:48:28;;;;;;;3.83;1.30;;;16.80;92.40;;;;;;4801095;28;46514;-63
2023/12/17 13:50:55;;;;;;;4.03;2.10;;;16.80;91.50;;;;;;4785064;28;45543;-63
2023/12/17 13:53:21;;;;;;;4.25;1.65;;;16.80;92.50;;;;;;4828094;28;45228;-63
2023/12/17 13:56:01;;;;;;;3.92;1.52;;;16.80;91.10;;;;;;4806710;28;45611;-63
2023/12/17 13:58:45;;;;;;;3.17;1.85;;;16.80;91.70;;;;;;4798553;28;46703;-63
2023/12/17 14:01:58;;;;;;;3.08;1.42;;;16.80;92.20;;;;;;4811333;28;45483;-62
2023/12/17 14:04:25;;;;;;;4.05;2.00;;;16.80;91.50;;;;;;4814850;28;45344;-63
2023/12/17 14:07:10;;;;;;;2.67;1.55;;;16.80;92.70;;;;;;4876093;28;45427;-63
2023/12/17 14:09:58;;;;;;;5.30;2.15;;;16.80;92.00;;;;;;4834207;28;45686;-63
2023/12/17 14:12:26;;;;;;;3.53;1.85;;;16.80;93.00;;;;;;4781137;28;45508;-63
2023/12/17 14:15:15;;;;;;;5.40;1.77;;;16.80;94.20;;;;;;4796970;28;45385;-63
2023/12/17 14:17:53;;;;;;;3.60;1.50;;;16.70;93.10;;;;;;4781254;28;45420;-63
2023/12/17 14:24:16;;;;;;;3.30;1.70;;;16.70;93.60;;;;;;4780902;28;45250;-63
2023/12/17 14:26:44;;;;;;;3.67;1.48;;;16.70;93.90;;;;;;4823582;28;45410;-63
2023/12/17 14:29:51;;;;;;;2.58;1.65;;;16.70;92.00;;;;;;4844395;28;45257;-63
2023/12/17 14:32:31;;;;;;;3.75;1.38;;;16.70;92.60;;;;;;4799737;28;47395;-63
2023/12/17 14:34:58;;;;;;;4.18;1.40;;;16.70;92.70;;;;;;4812126;28;45299;-63
2023/12/17 14:37:51;;;;;;;4.18;1.42;;;16.70;91.70;;;;;;4828727;28;45178;-63
2023/12/17 14:40:18;;;;;;;2.65;1.40;;;16.70;91.50;;;;;;4811714;28;45496;-63
2023/12/17 14:46:33;;;;;;;2.80;1.38;;;16.80;92.20;;;;;;4764661;28;45522;-62
2023/12/17 14:49:03;;;;;;;1.45;1.10;;;16.80;92.30;;;;;;4781578;28;45281;-63
2023/12/17 14:51:29;;;;;;;3.55;1.40;;;16.80;92.20;;;;;;4790020;28;45506;-63
2023/12/17 14:54:10;;;;;;;3.17;1.40;;;16.80;91.40;;;;;;4803728;28;46260;-63
2023/12/17 14:57:05;;;;;;;2.30;1.17;;;16.80;91.70;;;;;;4862190;28;45611;-63
2023/12/17 15:00:05;;;;;;;2.53;1.20;;;16.80;91.80;;;;;;4818611;28;45661;-62
2023/12/17 15:05:39;;;;;;;2.92;1.60;;;16.90;91.40;;;;;;4806659;28;45625;-63
2023/12/17 15:08:21;;;;;;;3.65;1.38;;;16.90;91.20;;;;;;4794496;28;45258;-63
2023/12/17 15:11:03;;;;;;;3.60;1.58;;;16.90;91.60;;;;;;4791711;28;45345;-62
2023/12/17 15:13:29;;;;;;;2.85;1.58;;;16.80;91.20;;;;;;4774624;28;45998;-63
2023/12/17 15:16:24;;;;;;;2.50;1.40;;;16.90;92.10;;;;;;4791902;28;46213;-62
2023/12/17 15:19:36;;;;;;;4.25;1.60;;;16.90;92.20;;;;;;4813413;28;45525;-62
2023/12/17 15:22:17;;;;;;;2.83;1.60;;;16.90;91.30;;;;;;4813317;28;45452;-62
2023/12/17 15:27:59;;;;;;;2.40;1.30;;;16.90;91.00;;;;;;4785327;28;46294;-62
2023/12/17 15:30:48;;;;;;;4.07;1.83;;;16.90;91.00;;;;;;4814305;28;45473;-62
2023/12/17 15:33:50;;;;;;;2.17;1.27;;;16.90;91.00;;;;;;4785405;28;45313;-62